Time;durP1;ratioP1;P1;durP2;ratioP2;P2;SDS_P1;SDS_P2;PMS_P1;PMS_P2;Temp;Humidity;BMP_temperature;BMP_pressure;BME280_temperature;BME280_humidity;BME280_pressure;Samples;Min_cycle;Max_cycle;Signal;HPM_P1;HPM_P2
2024/03/04 00:01:59;;;;;;;2.60;2.40;;;8.80;99.90;;;;;;5079112;28;20222;-76
2024/03/04 00:04:26;;;;;;;2.20;2.10;;;8.80;99.90;;;;;;5080652;28;20267;-77
2024/03/04 00:06:53;;;;;;;2.53;2.35;;;8.80;99.90;;;;;;5081075;28;20766;-77
2024/03/04 00:09:20;;;;;;;2.00;1.90;;;8.80;99.90;;;;;;5079683;28;20289;-76
2024/03/04 00:11:47;;;;;;;2.28;2.17;;;8.80;99.90;;;;;;5082542;28;20228;-75
2024/03/04 00:14:14;;;;;;;2.53;2.42;;;8.80;99.90;;;;;;5081816;28;20194;-75
2024/03/04 00:16:42;;;;;;;2.50;2.30;;;8.80;99.90;;;;;;5079515;28;20763;-77
2024/03/04 00:19:11;;;;;;;2.58;2.45;;;8.80;99.90;;;;;;5080187;28;20241;-76
2024/03/04 00:21:38;;;;;;;2.38;2.28;;;8.80;99.90;;;;;;5077708;28;20309;-76
2024/03/04 00:24:07;;;;;;;2.65;2.45;;;8.80;99.90;;;;;;5082114;28;20251;-77
2024/03/04 00:26:35;;;;;;;3.00;2.80;;;8.80;99.90;;;;;;5079780;28;20336;-77
2024/03/04 00:29:03;;;;;;;2.80;2.60;;;8.80;99.90;;;;;;5080431;28;20216;-76
2024/03/04 00:31:30;;;;;;;2.65;2.45;;;8.70;99.90;;;;;;5080769;28;20253;-75
2024/03/04 00:33:57;;;;;;;2.40;2.30;;;8.70;99.90;;;;;;5082890;28;20213;-75
2024/03/04 00:36:26;;;;;;;2.60;2.42;;;8.70;99.90;;;;;;5079967;28;20237;-75
2024/03/04 00:38:54;;;;;;;2.63;2.42;;;8.70;99.90;;;;;;5083206;28;20225;-75
2024/03/04 00:41:25;;;;;;;2.22;2.03;;;8.70;99.90;;;;;;5083361;28;20730;-76
2024/03/04 00:43:53;;;;;;;2.50;2.22;;;8.70;99.90;;;;;;5084539;28;20201;-76
2024/03/04 00:46:21;;;;;;;2.35;2.20;;;8.70;99.90;;;;;;5083103;28;20306;-76
2024/03/04 00:48:48;;;;;;;2.60;2.40;;;8.60;99.90;;;;;;5084283;28;20202;-76
2024/03/04 00:51:15;;;;;;;2.08;1.98;;;8.60;99.90;;;;;;5080701;28;20221;-76
2024/03/04 00:53:46;;;;;;;2.00;1.90;;;8.60;99.90;;;;;;5086794;28;20193;-75
2024/03/04 00:56:14;;;;;;;2.45;2.30;;;8.60;99.90;;;;;;5082637;28;20225;-75
2024/03/04 00:58:41;;;;;;;2.67;2.47;;;8.60;99.90;;;;;;5083996;28;20334;-77
2024/03/04 01:01:08;;;;;;;2.55;2.35;;;8.60;99.90;;;;;;5080926;28;20237;-75
2024/03/04 01:03:36;;;;;;;2.60;2.40;;;8.50;99.90;;;;;;5085871;28;20194;-76
2024/03/04 01:06:04;;;;;;;2.33;2.17;;;8.50;99.90;;;;;;5085535;28;20260;-75
2024/03/04 01:08:32;;;;;;;2.65;2.50;;;8.50;99.90;;;;;;5085393;28;20300;-75
2024/03/04 01:11:00;;;;;;;3.08;1.95;;;8.50;99.90;;;;;;5085214;28;20204;-76
2024/03/04 01:13:27;;;;;;;2.72;2.60;;;8.50;99.90;;;;;;5091141;28;20241;-77
2024/03/04 01:15:54;;;;;;;2.55;2.35;;;8.50;99.90;;;;;;5091999;28;20201;-76
2024/03/04 01:18:21;;;;;;;2.40;2.20;;;8.50;99.90;;;;;;5082840;28;20227;-75
2024/03/04 01:20:48;;;;;;;2.28;2.17;;;8.50;99.90;;;;;;5081801;28;20886;-75
2024/03/04 01:23:15;;;;;;;2.38;2.28;;;8.50;99.90;;;;;;5078849;28;20603;-75
2024/03/04 01:25:42;;;;;;;2.72;2.53;;;8.50;99.90;;;;;;5081765;28;20501;-74
2024/03/04 01:28:11;;;;;;;2.58;2.38;;;8.50;99.90;;;;;;5080432;28;20314;-74
2024/03/04 01:30:38;;;;;;;2.50;2.17;;;8.50;99.90;;;;;;5082936;28;20968;-75
2024/03/04 01:33:07;;;;;;;2.63;2.35;;;8.50;99.90;;;;;;5078842;28;20309;-75
2024/03/04 01:35:34;;;;;;;2.00;1.88;;;8.50;99.90;;;;;;5084796;28;20208;-75
2024/03/04 01:38:01;;;;;;;2.17;2.08;;;8.50;99.90;;;;;;5081819;28;20226;-76
2024/03/04 01:40:29;;;;;;;2.50;2.33;;;8.50;99.90;;;;;;5081286;28;20336;-76
2024/03/04 01:42:56;;;;;;;2.42;2.28;;;8.40;99.90;;;;;;5080523;28;20324;-76
2024/03/04 01:45:26;;;;;;;2.50;2.30;;;8.40;99.90;;;;;;5080551;28;20262;-75
2024/03/04 01:47:55;;;;;;;2.10;2.00;;;8.40;99.90;;;;;;5081316;28;20308;-77
2024/03/04 01:50:26;;;;;;;2.17;2.08;;;8.40;99.90;;;;;;5080039;28;20242;-76
2024/03/04 01:52:53;;;;;;;2.58;2.30;;;8.40;99.90;;;;;;5079833;28;20282;-75
2024/03/04 01:55:21;;;;;;;2.40;2.20;;;8.30;99.90;;;;;;5079898;28;20225;-75
2024/03/04 01:57:49;;;;;;;3.53;2.35;;;8.30;99.90;;;;;;5080542;28;20819;-76
2024/03/04 02:00:19;;;;;;;2.40;2.20;;;8.30;99.90;;;;;;5079301;28;20249;-76
2024/03/04 02:02:47;;;;;;;2.35;2.25;;;8.20;99.90;;;;;;5078939;28;20209;-76
2024/03/04 02:05:15;;;;;;;2.35;2.25;;;8.10;99.90;;;;;;5082245;28;20636;-77
2024/03/04 02:07:43;;;;;;;2.38;2.28;;;8.10;99.90;;;;;;5076678;28;20216;-76
2024/03/04 02:10:11;;;;;;;2.67;2.50;;;8.10;99.90;;;;;;5079610;28;20228;-76
2024/03/04 02:12:39;;;;;;;2.95;2.47;;;8.00;99.90;;;;;;5078473;28;20704;-77
2024/03/04 02:15:06;;;;;;;2.40;2.30;;;8.00;99.90;;;;;;5076867;28;20587;-76
2024/03/04 02:17:34;;;;;;;2.10;2.00;;;8.00;99.90;;;;;;5079042;28;20218;-75
2024/03/04 02:20:07;;;;;;;2.05;1.95;;;8.00;99.90;;;;;;5081285;28;20696;-76
2024/03/04 02:22:35;;;;;;;2.47;2.38;;;8.10;99.90;;;;;;5079090;28;20228;-74
2024/03/04 02:25:03;;;;;;;2.47;2.38;;;8.10;99.90;;;;;;5080464;28;20221;-75
2024/03/04 02:27:30;;;;;;;2.63;2.40;;;8.10;99.90;;;;;;5081168;28;20224;-74
2024/03/04 02:29:57;;;;;;;2.53;2.33;;;8.10;99.90;;;;;;5081544;28;20209;-76
2024/03/04 02:32:24;;;;;;;2.65;2.45;;;8.10;99.90;;;;;;5077617;28;20905;-75
2024/03/04 02:34:52;;;;;;;2.63;2.42;;;8.10;99.90;;;;;;5082029;28;20337;-75
2024/03/04 02:37:19;;;;;;;2.30;2.10;;;8.10;99.90;;;;;;5079129;28;20218;-74
2024/03/04 02:39:48;;;;;;;2.47;2.33;;;8.10;99.90;;;;;;5079648;28;20294;-75
2024/03/04 02:42:15;;;;;;;2.38;2.28;;;8.10;99.90;;;;;;5079559;28;20355;-76
2024/03/04 02:44:42;;;;;;;2.42;2.30;;;8.10;99.90;;;;;;5075978;28;20282;-76
2024/03/04 02:47:09;;;;;;;2.05;1.95;;;8.20;99.90;;;;;;5081690;28;20261;-75
2024/03/04 02:49:36;;;;;;;2.28;2.17;;;8.10;99.90;;;;;;5079451;28;20217;-76
2024/03/04 02:52:03;;;;;;;2.25;2.15;;;8.20;99.90;;;;;;5079842;28;20240;-75
2024/03/04 02:54:30;;;;;;;2.20;2.10;;;8.10;99.90;;;;;;5080618;28;20194;-76
2024/03/04 02:56:58;;;;;;;2.22;2.13;;;8.10;99.90;;;;;;5080276;28;20286;-75
2024/03/04 02:59:25;;;;;;;2.00;1.90;;;8.20;99.90;;;;;;5082424;28;20229;-76
2024/03/04 03:01:52;;;;;;;2.40;2.20;;;8.20;99.90;;;;;;5072756;28;20622;-76
2024/03/04 03:04:19;;;;;;;2.40;2.20;;;8.20;99.90;;;;;;5078910;28;20695;-76
2024/03/04 03:06:46;;;;;;;2.22;2.13;;;8.20;99.90;;;;;;5080868;28;20241;-76
2024/03/04 03:09:13;;;;;;;2.10;2.00;;;8.10;99.90;;;;;;5079818;28;20279;-76
2024/03/04 03:11:40;;;;;;;2.90;2.30;;;8.10;99.90;;;;;;5077872;28;20715;-76
2024/03/04 03:14:09;;;;;;;2.50;2.38;;;8.10;99.90;;;;;;5080670;28;20274;-76
2024/03/04 03:16:35;;;;;;;2.13;2.03;;;8.10;99.90;;;;;;5078545;28;20256;-76
2024/03/04 03:19:02;;;;;;;2.50;2.40;;;8.10;99.90;;;;;;5079870;28;20322;-75
2024/03/04 03:21:30;;;;;;;2.13;2.03;;;8.10;99.90;;;;;;5079573;28;20235;-75
2024/03/04 03:23:57;;;;;;;2.47;2.33;;;8.10;99.90;;;;;;5079875;28;20232;-77
2024/03/04 03:26:25;;;;;;;2.60;2.45;;;8.20;99.90;;;;;;5079830;28;20306;-75
2024/03/04 03:28:52;;;;;;;2.70;2.50;;;8.10;99.90;;;;;;5081928;28;20254;-78
2024/03/04 03:31:22;;;;;;;2.25;2.13;;;8.10;99.90;;;;;;5076922;28;20689;-75
2024/03/04 03:33:49;;;;;;;2.45;2.08;;;8.10;99.90;;;;;;5084213;28;20212;-75
2024/03/04 03:36:16;;;;;;;2.42;2.25;;;8.00;99.90;;;;;;5082557;28;20216;-75
2024/03/04 03:38:43;;;;;;;2.58;2.38;;;8.00;99.90;;;;;;5083042;28;20213;-76
2024/03/04 03:41:10;;;;;;;2.85;2.47;;;8.00;99.90;;;;;;5078703;28;20217;-76
2024/03/04 03:43:37;;;;;;;2.30;2.20;;;8.00;99.90;;;;;;5080537;28;20225;-75
2024/03/04 03:46:04;;;;;;;2.78;2.58;;;8.00;99.90;;;;;;5077985;28;20247;-75
2024/03/04 03:48:33;;;;;;;2.33;2.22;;;8.00;99.90;;;;;;5081148;28;20241;-76
2024/03/04 03:51:01;;;;;;;2.88;2.70;;;8.00;99.90;;;;;;5078473;28;20206;-76
2024/03/04 03:53:28;;;;;;;2.00;1.90;;;8.00;99.90;;;;;;5077362;28;20709;-76
2024/03/04 03:55:56;;;;;;;2.60;2.40;;;8.00;99.90;;;;;;5079274;28;20205;-76
2024/03/04 03:58:23;;;;;;;2.05;1.95;;;8.00;99.90;;;;;;5075583;28;20221;-76
2024/03/04 04:00:50;;;;;;;2.50;2.30;;;8.00;99.90;;;;;;5077857;28;20252;-75
2024/03/04 04:03:17;;;;;;;2.25;2.05;;;8.10;99.90;;;;;;5077205;28;20302;-76
2024/03/04 04:05:45;;;;;;;1.88;1.77;;;8.10;99.90;;;;;;5077271;28;20923;-75
2024/03/04 04:08:12;;;;;;;3.38;2.50;;;8.10;99.90;;;;;;5073879;28;20261;-74
2024/03/04 04:10:39;;;;;;;2.42;2.30;;;8.10;99.90;;;;;;5077794;28;20249;-75
2024/03/04 04:13:07;;;;;;;2.20;2.10;;;8.00;99.90;;;;;;5075700;28;20249;-75
2024/03/04 04:15:34;;;;;;;3.85;2.53;;;8.00;99.90;;;;;;5073854;28;20293;-75
2024/03/04 04:18:01;;;;;;;2.70;2.40;;;7.90;99.90;;;;;;5076091;28;20222;-75
2024/03/04 04:20:28;;;;;;;2.70;2.50;;;7.90;99.90;;;;;;5079992;28;20210;-76
2024/03/04 04:22:56;;;;;;;2.45;2.25;;;7.90;99.90;;;;;;5077942;28;21000;-74
2024/03/04 04:25:23;;;;;;;2.45;2.22;;;7.80;99.90;;;;;;5077599;28;20351;-76
2024/03/04 04:27:50;;;;;;;2.50;2.30;;;7.80;99.90;;;;;;5071455;28;20339;-75
2024/03/04 04:30:17;;;;;;;2.42;2.33;;;7.80;99.90;;;;;;5073570;28;20299;-76
2024/03/04 04:32:44;;;;;;;2.63;2.53;;;7.80;99.90;;;;;;5076455;28;20253;-75
2024/03/04 04:35:11;;;;;;;2.10;2.00;;;7.80;99.90;;;;;;5074865;28;20259;-75
2024/03/04 04:37:38;;;;;;;2.22;2.13;;;7.80;99.90;;;;;;5079079;28;20221;-75
2024/03/04 04:40:09;;;;;;;2.40;2.25;;;7.80;99.90;;;;;;5076583;28;20237;-77
2024/03/04 04:42:36;;;;;;;2.25;2.15;;;7.90;99.90;;;;;;5080335;28;20320;-75
2024/03/04 04:45:03;;;;;;;2.08;1.98;;;7.90;99.90;;;;;;5081702;28;20237;-76
2024/03/04 04:47:30;;;;;;;2.65;2.55;;;7.90;99.90;;;;;;5086097;28;20266;-74
2024/03/04 04:49:58;;;;;;;2.33;2.13;;;7.90;99.90;;;;;;5081709;28;20249;-75
2024/03/04 04:52:25;;;;;;;2.17;2.08;;;7.90;99.90;;;;;;5078560;28;21360;-75
2024/03/04 04:54:52;;;;;;;2.53;2.38;;;7.90;99.90;;;;;;5082170;28;20311;-76
2024/03/04 04:57:20;;;;;;;2.75;2.50;;;7.90;99.90;;;;;;5081062;28;20272;-75
2024/03/04 04:59:47;;;;;;;3.83;2.53;;;7.90;99.90;;;;;;5079425;28;20859;-75
2024/03/04 05:02:14;;;;;;;2.53;2.35;;;7.90;99.90;;;;;;5076824;28;20282;-74
2024/03/04 05:04:44;;;;;;;2.50;2.30;;;7.90;99.90;;;;;;5082209;28;20197;-76
2024/03/04 05:07:11;;;;;;;2.67;2.47;;;7.90;99.90;;;;;;5080226;28;20699;-75
2024/03/04 05:09:38;;;;;;;2.70;2.50;;;7.90;99.90;;;;;;5082516;28;20224;-75
2024/03/04 05:12:06;;;;;;;2.47;2.28;;;7.90;99.90;;;;;;5071257;28;20271;-77
2024/03/04 05:14:34;;;;;;;2.13;2.03;;;7.90;99.90;;;;;;5062469;28;20278;-76
2024/03/04 05:17:01;;;;;;;2.45;2.35;;;7.90;99.90;;;;;;5060456;28;20254;-75
2024/03/04 05:19:34;;;;;;;2.03;1.92;;;7.90;99.90;;;;;;5060250;28;20471;-74
2024/03/04 05:22:01;;;;;;;2.35;2.25;;;7.90;99.90;;;;;;5071694;28;20830;-75
2024/03/04 05:24:28;;;;;;;2.88;2.33;;;7.90;99.90;;;;;;5081096;28;20243;-75
2024/03/04 05:26:55;;;;;;;2.20;2.10;;;7.90;99.90;;;;;;5080402;28;20249;-75
2024/03/04 05:29:22;;;;;;;2.28;2.17;;;7.90;99.90;;;;;;5080750;28;20314;-75
2024/03/04 05:31:55;;;;;;;2.55;2.42;;;7.90;99.90;;;;;;5078409;28;20289;-75
2024/03/04 05:34:22;;;;;;;2.38;2.20;;;7.90;99.90;;;;;;5082202;28;20275;-76
2024/03/04 05:36:49;;;;;;;2.50;2.40;;;7.80;99.90;;;;;;5083043;28;20712;-76
2024/03/04 05:39:20;;;;;;;2.35;2.15;;;7.90;99.90;;;;;;5081885;28;20224;-74
2024/03/04 05:41:47;;;;;;;2.10;2.00;;;7.90;99.90;;;;;;5079231;28;20781;-77
2024/03/04 05:44:15;;;;;;;2.63;2.42;;;7.90;99.90;;;;;;5081676;28;20286;-75
2024/03/04 05:46:43;;;;;;;2.10;2.00;;;7.90;99.90;;;;;;5081210;28;20816;-76
2024/03/04 05:49:12;;;;;;;2.65;2.22;;;7.90;99.90;;;;;;5079893;28;20766;-75
2024/03/04 05:51:40;;;;;;;2.33;2.13;;;7.90;99.90;;;;;;5077217;28;20240;-75
2024/03/04 05:54:07;;;;;;;2.30;2.20;;;7.90;99.90;;;;;;5081295;28;20199;-76
2024/03/04 05:56:34;;;;;;;2.40;2.25;;;7.90;99.90;;;;;;5080050;28;20270;-75
2024/03/04 05:59:02;;;;;;;2.78;2.58;;;7.90;99.90;;;;;;5083396;28;20248;-75
2024/03/04 06:01:32;;;;;;;2.50;2.25;;;7.90;99.90;;;;;;5077873;28;20225;-74
2024/03/04 06:03:59;;;;;;;2.38;2.17;;;7.90;99.90;;;;;;5081451;28;20205;-75
2024/03/04 06:06:27;;;;;;;2.15;2.05;;;7.90;99.90;;;;;;5077160;28;20249;-75
2024/03/04 06:08:56;;;;;;;2.30;2.20;;;7.90;99.90;;;;;;5079674;28;20232;-75
2024/03/04 06:11:23;;;;;;;2.42;2.33;;;8.00;99.90;;;;;;5077407;28;20290;-76
2024/03/04 06:13:50;;;;;;;2.70;2.60;;;8.00;99.90;;;;;;5084386;28;20844;-76
2024/03/04 06:16:17;;;;;;;2.42;2.33;;;8.00;99.90;;;;;;5082993;28;20229;-76
2024/03/04 06:18:44;;;;;;;2.05;1.95;;;8.00;99.90;;;;;;5086433;28;20263;-73
2024/03/04 06:21:11;;;;;;;2.33;2.22;;;8.00;99.90;;;;;;5077253;28;21233;-75
2024/03/04 06:23:39;;;;;;;2.38;2.20;;;8.00;99.90;;;;;;5082386;28;20205;-75
2024/03/04 06:26:11;;;;;;;2.55;2.45;;;8.10;99.90;;;;;;5079880;28;20233;-75
2024/03/04 06:28:38;;;;;;;2.63;2.42;;;8.10;99.90;;;;;;5079357;28;20244;-75
2024/03/04 06:31:05;;;;;;;2.65;2.45;;;8.10;99.90;;;;;;5077613;28;20566;-76
2024/03/04 06:33:31;;;;;;;2.45;2.35;;;8.10;99.90;;;;;;5081324;28;20714;-76
2024/03/04 06:35:58;;;;;;;2.58;2.42;;;8.10;99.90;;;;;;5082191;28;20283;-75
2024/03/04 06:38:25;;;;;;;2.78;2.65;;;8.10;99.90;;;;;;5077884;28;20245;-75
2024/03/04 06:40:54;;;;;;;2.55;2.42;;;8.10;99.90;;;;;;5079599;28;20901;-75
2024/03/04 06:43:21;;;;;;;2.45;2.33;;;8.10;99.90;;;;;;5077144;28;20228;-75
2024/03/04 06:45:47;;;;;;;2.78;2.67;;;8.10;99.90;;;;;;5079615;28;20776;-74
2024/03/04 06:48:14;;;;;;;2.47;2.38;;;8.20;99.90;;;;;;5078350;28;20301;-75
2024/03/04 06:50:41;;;;;;;2.25;2.05;;;8.20;99.90;;;;;;5077549;28;20309;-76
2024/03/04 06:53:09;;;;;;;2.30;2.20;;;8.20;99.90;;;;;;5074978;28;20241;-75
2024/03/04 06:55:36;;;;;;;2.15;2.05;;;8.20;99.90;;;;;;5080140;28;20710;-74
2024/03/04 06:58:05;;;;;;;2.08;1.98;;;8.30;99.90;;;;;;5073144;28;20275;-75
2024/03/04 07:00:31;;;;;;;2.80;2.60;;;8.30;99.90;;;;;;5072005;28;20309;-75
2024/03/04 07:02:59;;;;;;;2.60;2.45;;;8.30;99.90;;;;;;5073001;28;20290;-75
2024/03/04 07:05:26;;;;;;;2.45;2.35;;;8.30;99.90;;;;;;5071194;28;20212;-76
2024/03/04 07:07:53;;;;;;;2.30;2.10;;;8.30;99.90;;;;;;5076918;28;20314;-77
2024/03/04 07:10:20;;;;;;;2.85;2.20;;;8.30;99.90;;;;;;5076357;28;20310;-76
2024/03/04 07:12:47;;;;;;;2.22;1.95;;;8.40;99.90;;;;;;5077374;28;20341;-76
2024/03/04 07:15:15;;;;;;;2.40;2.30;;;8.40;99.90;;;;;;5075645;28;20230;-76
2024/03/04 07:17:42;;;;;;;2.47;2.38;;;8.40;99.90;;;;;;5072653;28;20228;-77
2024/03/04 07:20:10;;;;;;;2.20;2.10;;;8.40;99.90;;;;;;5075611;28;20826;-75
2024/03/04 07:22:37;;;;;;;4.13;2.67;;;8.40;99.90;;;;;;5072780;28;20225;-74
2024/03/04 07:25:06;;;;;;;2.60;2.50;;;8.40;99.90;;;;;;5075557;28;20288;-76
2024/03/04 07:27:33;;;;;;;2.92;2.60;;;8.40;99.90;;;;;;5075019;28;20245;-77
2024/03/04 07:30:00;;;;;;;2.78;2.67;;;8.30;99.90;;;;;;5076358;28;20278;-76
2024/03/04 07:32:28;;;;;;;2.65;2.50;;;8.40;99.90;;;;;;5075809;28;20245;-76
2024/03/04 07:34:55;;;;;;;3.33;2.70;;;8.40;99.90;;;;;;5074801;28;20292;-74
2024/03/04 07:37:25;;;;;;;4.30;2.53;;;8.70;99.90;;;;;;5076355;28;20896;-77
2024/03/04 07:39:51;;;;;;;2.65;2.45;;;9.00;99.90;;;;;;5076537;28;20217;-77
2024/03/04 07:42:20;;;;;;;3.03;2.83;;;9.30;99.90;;;;;;5074066;28;20322;-78
2024/03/04 07:44:47;;;;;;;2.72;2.53;;;9.70;99.90;;;;;;5075492;28;20212;-78
2024/03/04 07:47:14;;;;;;;4.75;2.83;;;9.90;99.90;;;;;;5074364;28;20286;-77
2024/03/04 07:49:42;;;;;;;2.42;2.33;;;9.80;99.90;;;;;;5075216;28;20220;-76
2024/03/04 07:52:09;;;;;;;2.47;2.28;;;9.80;99.90;;;;;;5074605;28;20723;-75
2024/03/04 07:54:36;;;;;;;2.20;2.10;;;9.70;99.90;;;;;;5074140;28;20286;-77
2024/03/04 07:57:04;;;;;;;2.70;2.50;;;9.70;99.90;;;;;;5079323;28;20680;-76
2024/03/04 07:59:33;;;;;;;3.30;3.00;;;9.60;99.90;;;;;;5077302;28;20231;-74
2024/03/04 08:02:03;;;;;;;4.50;3.20;;;9.50;99.90;;;;;;5075167;28;20217;-75
2024/03/04 08:04:30;;;;;;;3.30;2.72;;;9.40;99.90;;;;;;5076624;28;20198;-77
2024/03/04 08:06:58;;;;;;;3.42;3.13;;;9.30;99.90;;;;;;5076562;28;20245;-77
2024/03/04 08:09:25;;;;;;;5.75;3.70;;;9.20;99.90;;;;;;5078143;28;20282;-74
2024/03/04 08:11:52;;;;;;;2.92;2.70;;;9.10;99.90;;;;;;5082109;28;20241;-77
2024/03/04 08:14:19;;;;;;;3.10;2.78;;;9.10;99.90;;;;;;5084801;28;20229;-78
2024/03/04 08:16:46;;;;;;;3.20;3.00;;;9.10;99.90;;;;;;5087342;28;20218;-75
2024/03/04 08:19:13;;;;;;;3.28;2.97;;;9.30;99.90;;;;;;5087797;28;20221;-76
2024/03/04 08:21:42;;;;;;;2.97;2.78;;;9.40;99.90;;;;;;5079322;28;20294;-77
2024/03/04 08:24:10;;;;;;;2.95;2.75;;;9.70;99.90;;;;;;5085465;28;20296;-74
2024/03/04 08:26:37;;;;;;;3.10;2.90;;;9.90;99.90;;;;;;5083270;28;20221;-74
2024/03/04 08:29:04;;;;;;;3.38;2.78;;;10.10;99.90;;;;;;5084347;28;20272;-75
2024/03/04 08:31:32;;;;;;;5.00;2.95;;;10.20;99.90;;;;;;5079042;28;20304;-78
2024/03/04 08:33:59;;;;;;;4.18;2.90;;;10.30;99.90;;;;;;5083157;28;20193;-75
2024/03/04 08:36:26;;;;;;;3.10;2.90;;;10.30;99.90;;;;;;5074873;28;20695;-77
2024/03/04 08:38:53;;;;;;;3.50;3.13;;;10.20;99.90;;;;;;5076481;28;20251;-77
2024/03/04 08:41:24;;;;;;;2.67;2.47;;;10.10;99.90;;;;;;5074092;28;20304;-77
2024/03/04 08:43:51;;;;;;;3.15;2.85;;;10.00;99.90;;;;;;5077833;28;20194;-74
2024/03/04 08:46:18;;;;;;;2.47;2.28;;;9.80;99.90;;;;;;5072577;28;20309;-75
2024/03/04 08:48:45;;;;;;;3.25;2.67;;;9.80;99.90;;;;;;5075521;28;20313;-76
2024/03/04 08:51:12;;;;;;;2.80;2.60;;;9.70;99.90;;;;;;5074078;28;20775;-74
2024/03/04 08:53:39;;;;;;;2.50;2.30;;;9.70;99.90;;;;;;5076410;28;20201;-74
2024/03/04 08:56:07;;;;;;;3.83;2.90;;;9.70;99.90;;;;;;5075010;28;20369;-74
2024/03/04 08:58:35;;;;;;;2.75;2.55;;;9.70;99.90;;;;;;5076755;28;20221;-75
2024/03/04 09:01:03;;;;;;;3.22;2.83;;;9.70;99.90;;;;;;5074826;28;20221;-76
2024/03/04 09:03:30;;;;;;;2.92;2.65;;;9.70;99.90;;;;;;5074066;28;20218;-76
2024/03/04 09:05:57;;;;;;;2.80;2.60;;;9.80;99.90;;;;;;5075074;28;20233;-76
2024/03/04 09:08:24;;;;;;;3.08;2.78;;;9.80;99.90;;;;;;5071661;28;20241;-75
2024/03/04 09:10:52;;;;;;;2.60;2.40;;;9.80;99.90;;;;;;5070669;28;20298;-75
2024/03/04 09:13:20;;;;;;;2.78;2.58;;;9.80;99.90;;;;;;5072591;28;20218;-77
2024/03/04 09:15:48;;;;;;;2.67;2.47;;;9.80;99.90;;;;;;5076657;28;20209;-77
2024/03/04 09:18:15;;;;;;;3.55;2.80;;;9.90;99.90;;;;;;5079082;28;20245;-75
2024/03/04 09:20:42;;;;;;;2.85;2.65;;;10.00;99.90;;;;;;5077338;28;20963;-76
2024/03/04 09:23:12;;;;;;;3.50;3.20;;;10.20;99.90;;;;;;5077099;28;20246;-75
2024/03/04 09:25:40;;;;;;;2.88;2.60;;;10.40;99.90;;;;;;5076238;28;20198;-76
2024/03/04 09:28:07;;;;;;;4.00;3.13;;;10.60;99.90;;;;;;5073677;28;20226;-77
2024/03/04 09:30:34;;;;;;;3.30;3.00;;;10.60;99.90;;;;;;5074860;28;20224;-76
2024/03/04 09:33:03;;;;;;;2.75;2.55;;;10.60;99.90;;;;;;5075855;28;20825;-76
2024/03/04 09:35:30;;;;;;;3.10;2.90;;;10.50;99.90;;;;;;5078937;28;20220;-76
2024/03/04 09:37:58;;;;;;;2.83;2.63;;;10.50;99.90;;;;;;5078053;28;20241;-75
2024/03/04 09:40:26;;;;;;;3.13;2.83;;;10.70;99.90;;;;;;5077692;28;20218;-75
2024/03/04 09:42:53;;;;;;;3.17;2.90;;;10.90;99.90;;;;;;5072784;28;20302;-75
2024/03/04 09:45:21;;;;;;;3.13;2.65;;;11.10;99.90;;;;;;5075593;28;20193;-77
2024/03/04 09:47:52;;;;;;;2.75;2.55;;;11.40;99.90;;;;;;5075316;28;20217;-76
2024/03/04 09:50:22;;;;;;;2.90;2.70;;;11.70;99.90;;;;;;5078277;28;20336;-75
2024/03/04 09:52:49;;;;;;;3.90;3.35;;;12.10;99.90;;;;;;5071802;28;20217;-76
2024/03/04 09:55:16;;;;;;;2.38;2.20;;;12.10;99.90;;;;;;5075601;28;20304;-77
2024/03/04 09:57:44;;;;;;;5.65;3.15;;;12.20;99.90;;;;;;5075825;28;20256;-76
2024/03/04 10:00:14;;;;;;;2.78;2.58;;;12.10;99.90;;;;;;5072708;28;20241;-75
2024/03/04 10:02:41;;;;;;;2.97;2.67;;;12.10;99.90;;;;;;5071978;28;20987;-76
2024/03/04 10:05:10;;;;;;;3.15;2.63;;;12.10;99.90;;;;;;5075224;28;20296;-77
2024/03/04 10:07:38;;;;;;;2.63;2.00;;;12.10;99.90;;;;;;5075475;28;20919;-76
2024/03/04 10:10:08;;;;;;;2.60;2.28;;;12.10;99.90;;;;;;5077971;28;20245;-78
2024/03/04 10:12:35;;;;;;;2.78;2.58;;;12.20;99.90;;;;;;5074485;28;20707;-77
2024/03/04 10:15:06;;;;;;;3.60;2.30;;;12.20;99.90;;;;;;5076850;28;20289;-77
2024/03/04 10:17:34;;;;;;;2.33;2.10;;;12.30;99.90;;;;;;5076301;28;20320;-76
2024/03/04 10:20:02;;;;;;;3.40;2.60;;;12.20;99.90;;;;;;5075803;28;20960;-76
2024/03/04 10:22:33;;;;;;;2.65;2.40;;;12.40;99.90;;;;;;5072835;28;20242;-77
2024/03/04 10:25:05;;;;;;;3.33;2.38;;;12.50;99.90;;;;;;5076451;28;20198;-76
2024/03/04 10:27:33;;;;;;;3.63;2.17;;;12.60;99.90;;;;;;5076262;28;20319;-76
2024/03/04 10:30:11;;;;;;;3.33;2.38;;;12.70;99.90;;;;;;5076911;28;20236;-75
2024/03/04 10:32:39;;;;;;;2.25;2.13;;;12.90;99.90;;;;;;5073497;28;20381;-77
2024/03/04 10:35:07;;;;;;;3.28;2.17;;;12.90;99.90;;;;;;5076302;28;20225;-77
2024/03/04 10:37:34;;;;;;;3.67;2.40;;;13.20;99.90;;;;;;5070592;28;20313;-75
2024/03/04 10:40:01;;;;;;;5.75;2.33;;;13.80;99.90;;;;;;5074991;28;20217;-76
2024/03/04 10:42:30;;;;;;;2.92;2.10;;;14.40;99.90;;;;;;5074568;28;21019;-76
2024/03/04 10:44:58;;;;;;;2.42;2.22;;;14.80;99.90;;;;;;5073296;28;20282;-75
2024/03/04 10:47:27;;;;;;;2.50;2.30;;;15.00;99.90;;;;;;5068975;28;20325;-76
2024/03/04 10:49:54;;;;;;;3.03;2.00;;;15.20;99.90;;;;;;5075327;28;20829;-77
2024/03/04 10:52:22;;;;;;;1.90;1.80;;;15.30;99.90;;;;;;5072786;28;20225;-75
2024/03/04 10:54:49;;;;;;;2.72;1.90;;;15.30;99.90;;;;;;5072303;28;20197;-77
2024/03/04 10:57:26;;;;;;;2.20;2.00;;;15.10;99.90;;;;;;5074330;28;20859;-76
2024/03/04 10:59:57;;;;;;;3.53;1.80;;;15.00;99.90;;;;;;5070109;28;20249;-75
2024/03/04 11:02:43;;;;;;;1.90;1.80;;;15.10;99.90;;;;;;5075370;28;20225;-76
2024/03/04 11:05:11;;;;;;;3.47;2.28;;;15.00;99.90;;;;;;5074907;28;20286;-75
2024/03/04 11:07:43;;;;;;;2.45;2.15;;;14.90;99.90;;;;;;5068910;28;20221;-76
2024/03/04 11:10:17;;;;;;;2.13;2.03;;;14.80;99.90;;;;;;5073896;28;20219;-75
2024/03/04 11:12:53;;;;;;;2.40;2.20;;;14.80;99.90;;;;;;5073416;28;20248;-76
2024/03/04 11:15:24;;;;;;;5.53;2.00;;;14.80;99.90;;;;;;5074618;28;20253;-77
2024/03/04 11:17:57;;;;;;;2.88;1.88;;;14.80;99.90;;;;;;5077242;28;20229;-76
2024/03/04 11:20:27;;;;;;;2.85;2.25;;;15.10;99.90;;;;;;5074080;28;20216;-77
2024/03/04 11:22:54;;;;;;;1.90;1.60;;;15.60;99.90;;;;;;5054648;28;20295;-76
2024/03/04 11:25:21;;;;;;;4.60;2.00;;;16.10;99.90;;;;;;5053954;28;20277;-75
2024/03/04 11:27:50;;;;;;;2.40;2.10;;;16.20;99.90;;;;;;5057101;28;20333;-78
2024/03/04 11:30:18;;;;;;;2.55;1.85;;;16.30;99.90;;;;;;5055258;28;20214;-75
2024/03/04 11:32:47;;;;;;;3.00;1.98;;;16.20;99.90;;;;;;5053169;28;20222;-75
2024/03/04 11:35:28;;;;;;;3.20;1.90;;;16.10;99.90;;;;;;5055789;28;20217;-75
2024/03/04 11:38:08;;;;;;;3.22;2.10;;;16.00;99.90;;;;;;5053003;28;20221;-76
2024/03/04 11:40:36;;;;;;;3.60;2.20;;;15.90;99.90;;;;;;5047598;28;20245;-74
2024/03/04 11:43:03;;;;;;;3.03;2.10;;;15.60;99.90;;;;;;5054625;28;20305;-75
2024/03/04 11:45:32;;;;;;;4.15;2.20;;;15.20;99.90;;;;;;5055719;28;20281;-76
2024/03/04 11:48:01;;;;;;;2.70;2.42;;;15.00;99.90;;;;;;5074520;28;20810;-76
2024/03/04 11:50:44;;;;;;;3.47;2.28;;;14.90;99.90;;;;;;5078074;28;20221;-75
2024/03/04 11:53:29;;;;;;;3.83;2.17;;;15.00;99.90;;;;;;5078141;28;20224;-76
2024/03/04 11:55:57;;;;;;;4.03;2.38;;;15.20;99.90;;;;;;5076092;28;20340;-75
2024/03/04 11:58:26;;;;;;;2.70;2.40;;;15.20;99.90;;;;;;5076508;28;20241;-78
2024/03/04 12:00:54;;;;;;;4.68;2.40;;;15.30;99.90;;;;;;5079344;28;20233;-76
2024/03/04 12:03:22;;;;;;;4.40;3.00;;;15.40;99.90;;;;;;5058722;28;20222;-75
2024/03/04 12:05:49;;;;;;;2.72;2.30;;;15.30;99.90;;;;;;5058294;28;20760;-76
2024/03/04 12:08:16;;;;;;;2.67;2.28;;;15.10;99.90;;;;;;5074206;28;20763;-77
2024/03/04 12:10:44;;;;;;;2.58;2.20;;;14.70;99.90;;;;;;5078321;28;20221;-74
2024/03/04 12:13:11;;;;;;;5.07;2.65;;;14.50;99.90;;;;;;5077082;28;20320;-76
2024/03/04 12:15:41;;;;;;;4.82;2.40;;;14.30;99.90;;;;;;5081219;28;20229;-77
2024/03/04 12:18:09;;;;;;;4.63;2.58;;;14.30;99.90;;;;;;5078326;28;20218;-77
2024/03/04 12:20:37;;;;;;;2.85;2.40;;;14.10;99.90;;;;;;5079175;28;20214;-76
2024/03/04 12:23:05;;;;;;;4.28;2.25;;;14.00;99.90;;;;;;5075789;28;20241;-76
2024/03/04 12:25:32;;;;;;;2.83;2.03;;;14.20;99.90;;;;;;5077700;28;20208;-77
2024/03/04 12:27:59;;;;;;;5.15;2.08;;;14.40;99.90;;;;;;5073997;28;20703;-76
2024/03/04 12:30:27;;;;;;;2.53;2.33;;;14.20;99.90;;;;;;5078978;28;20239;-76
2024/03/04 12:32:54;;;;;;;6.45;2.10;;;13.90;99.90;;;;;;5077977;28;20221;-76
2024/03/04 12:35:23;;;;;;;4.40;2.13;;;13.70;99.90;;;;;;5080564;28;20197;-77
2024/03/04 12:37:53;;;;;;;3.50;1.92;;;13.70;99.90;;;;;;5077161;28;20228;-74
2024/03/04 12:40:21;;;;;;;3.20;2.30;;;14.10;99.90;;;;;;5078444;28;20216;-75
2024/03/04 12:42:53;;;;;;;2.88;2.10;;;14.40;99.90;;;;;;5078342;28;20716;-74
2024/03/04 12:45:20;;;;;;;2.40;2.00;;;14.70;99.90;;;;;;5078424;28;20201;-75
2024/03/04 12:47:47;;;;;;;2.50;1.77;;;15.00;99.90;;;;;;5075392;28;20249;-75
2024/03/04 12:50:14;;;;;;;3.70;1.88;;;15.10;99.90;;;;;;5079984;28;20217;-74
2024/03/04 12:52:41;;;;;;;2.72;2.22;;;15.20;99.90;;;;;;5080318;28;20237;-75
2024/03/04 12:55:15;;;;;;;3.08;1.92;;;15.40;99.90;;;;;;5078323;28;20759;-75
2024/03/04 12:57:42;;;;;;;2.15;1.80;;;15.40;99.90;;;;;;5073054;28;20341;-78